Skip Navigation LinksHome page > Weather > Current weather Skip Navigation Links

Current Weather

John F Kennedy Intl, New York

For information only: do not use for flight planning or navigation.
Latest weather
Observation time Thursday, November 14, 2019 7:51 PM EST
Local time Thursday, November 14, 2019 8:08 PM EST
Flight conditions Visual Meteorological Conditions
Winds
Wind direction Southwest (230°)
Wind speed 14 mph
Visibility 10 mi.
Sky condition
Ceiling 14,000 ft. broken clouds
Cloud layer broken clouds 14,000 ft.
Cloud layer broken clouds 25,000 ft.
Temperature 44°F
Dewpoint 29°F
Altimeter 30.32 in.Hg
Derived measurements
Relative humidity 55%
Wind chill 37°F
Density altitude -1359 ft.
Sea-level pressure 30.32 in.Hg
Remarks
Automated weather observing station with precipitation discriminator.
METAR KJFK 150051Z 23012KT 10SM BKN140 BKN250 07/M02 A3032 RMK AO2 SLP266 T00671017

Settings

Location code

InnerDrive.Weather 4.0.6770.0 Release CLR 4.0.30319.42000
Copyright ©2018 Inner Drive Technology. All rights reserved. Portions Copyright ©1986-2018 David Braverman.

Find weather

Site navigation


Skip Navigation Links

Place info

Page info

PayPal - The safer, easier way to pay online!

Return home.

Copyright ©2019 Inner Drive Technology. Purveyors of fine, hand-crafted computer software. Page printed 2019-11-15T01:08:03 UTC.